Date,TemperatureHighF,TemperatureAvgF,TemperatureLowF,DewpointHighF,DewpointAvgF,DewpointLowF,HumidityHigh,HumidityAvg,HumidityLow,PressureMaxIn,PressureMinIn,WindSpeedMaxMPH,WindSpeedAvgMPH,GustSpeedMaxMPH,PrecipitationSumIn
2013-3-1,30.6,28.4,24.2,29.9,24.8,21.6,97,86,78,30.09,29.95,7,4,18,0.00
2013-3-2,28.9,25.5,23.5,23.6,22.3,21.0,93,88,73,30.09,30.04,10,5,14,0.00
2013-3-3,24.6,22.1,14.9,21.6,17.9,13.2,94,84,70,30.13,30.06,9,4,14,0.00
2013-3-4,37.7,24.7,13.3,23.6,18.1,11.5,94,78,45,30.24,30.13,5,1,11,0.00
2013-3-5,38.8,33.5,27.4,31.1,24.8,22.0,96,71,54,30.16,29.63,5,2,13,0.01
2013-3-6,38.4,34.3,31.3,32.6,31.5,30.0,98,90,75,30.24,29.62,7,4,13,0.20
2013-3-7,39.5,33.9,30.0,32.3,29.8,28.0,94,85,71,30.40,30.22,8,5,13,0.00
2013-3-8,44.3,33.5,24.5,31.0,26.9,22.8,95,78,55,30.52,30.39,6,2,13,0.00
2013-3-9,55.2,37.7,20.3,35.1,28.3,19.3,98,73,42,30.47,30.14,7,2,16,0.00
2013-3-10,68.4,55.0,40.4,39.6,35.7,30.3,91,51,32,30.14,29.89,8,2,16,0.02
2013-3-11,60.9,50.8,40.8,50.5,42.9,36.2,96,77,40,29.90,29.58,10,4,17,0.59
2013-3-12,40.7,34.8,28.0,36.4,30.9,27.3,97,85,76,30.05,29.80,9,4,16,0.00
2013-3-13,31.3,28.2,24.8,30.6,23.9,19.1,99,84,70,30.29,30.00,14,7,20,0.00
2013-3-14,39.1,29.0,20.9,24.3,20.5,17.0,88,71,51,30.35,30.20,10,4,20,0.00
2013-3-15,47.4,36.5,22.3,39.1,30.8,19.8,97,80,66,30.20,29.89,6,2,15,0.04
2013-3-16,48.9,39.0,30.1,45.7,37.9,28.1,100,96,85,30.05,29.66,11,3,16,0.02
2013-3-17,36.4,31.5,29.5,28.6,26.2,23.8,93,81,66,30.23,30.06,5,2,10,0.00
2013-3-18,48.4,37.6,29.8,48.4,36.2,24.4,100,95,78,30.15,29.65,13,4,17,0.48
2013-3-19,38.5,32.2,27.5,35.8,24.6,18.9,94,74,55,30.06,29.80,16,8,27,0.01
2013-3-20,32.5,27.8,20.8,22.4,18.1,14.3,81,67,58,30.06,29.95,12,7,27,0.00
2013-3-21,29.9,22.1,14.0,22.6,15.6,8.6,85,76,65,30.05,29.97,10,5,18,0.00
2013-3-22,39.9,28.6,19.9,23.5,19.9,16.4,87,71,48,30.10,30.03,10,4,16,0.00
2013-3-23,44.6,36.0,23.5,27.1,23.6,19.2,85,62,43,30.13,30.03,7,3,16,0.00
2013-3-24,37.7,32.0,27.4,27.6,24.1,22.8,84,73,60,30.03,29.49,6,3,16,0.00
2013-3-25,34.8,32.3,30.8,32.6,31.1,28.2,99,95,84,29.90,29.44,8,3,14,0.14
2013-3-26,40.9,34.7,31.1,31.7,29.3,23.3,96,82,52,30.17,29.90,11,7,15,0.18
2013-3-27,41.6,37.6,32.4,30.5,28.8,26.9,88,71,58,30.27,30.23,14,9,23,0.00
2013-3-28,45.4,37.1,28.2,31.7,27.5,23.1,82,69,53,30.34,30.27,11,6,23,0.00
2013-3-29,50.6,40.8,33.0,31.4,28.1,25.6,78,62,42,30.34,30.23,10,4,23,0.00
2013-3-30,55.0,40.2,22.0,34.3,27.6,20.0,95,65,32,30.30,30.02,5,1,18,0.00
2013-3-31,53.0,44.2,37.9,46.2,38.0,26.9,97,79,59,30.02,29.75,7,2,14,0.12